Airfield :
LOGIN :

Register | Disclaimer

   EN    FR    IT 

 










Legend :    VFR   Marginal VFR   IFR   Intensive IFR   Very Intensive IFR
Visi :
Ceiling :
>= 8 km
>= 3000ft
5 to 8 km
1000 to 3000 ft
1500m to 5 km
500 to 1000 ft
800 to 1500m
200 to 500 ft
< 800m
< 200 ft
Symbols :   Thunderstorms  Fog  Heavy snow  Heavy precipitations  Wind > 20 kt
SIGMETs :     Misc.  Thunderstorms  Icing  Turbulence  Mountain Waves  Volcanic Ashes







- Airport Elevation : 1090 ft
- IATA code : CFE
- Download approach charts


LFLC - Clermont-Ferrand Auvergne

CURRENT METAR :
  • 210100Z AUTO VRB02KT CAVOK 12/10 Q1018 NOSIG

EXPIRED METARs :
  • 210030Z AUTO 19003KT 090V220 CAVOK 11/09 Q1017 NOSIG
  • 210000Z AUTO 00000KT CAVOK 12/10 Q1018 NOSIG
  • 202330Z AUTO 25003KT CAVOK 12/09 Q1018 NOSIG
  • 202300Z AUTO VRB02KT CAVOK 13/10 Q1018 NOSIG
  • 202230Z AUTO 19004KT CAVOK 14/11 Q1018 NOSIG
  • 202200Z AUTO 00000KT CAVOK 13/11 Q1018 NOSIG

TAF TAF LFLC
Valid from the 20 at 21:00 until the 21 at 21:00 UTC


202000Z 2021/2121 18007KT CAVOK
BECMG 2109/2111 25012KT FEW030TCU BKN040
PROB30
TEMPO 2111/2121 -SHRA
ATIS : +33 4 73 62 74 38
No reported NOTAMs for that airfield.



MET'MAP, your aeronautical weather chart ! - Copyright ORBIFLY December 2007 - Disclaimer

ORBIFLY MET'MAP TEAM :

Programming & Development : Alexandra Zaïnal
Concept & Development : Baudouin d'Aumeries
Co-Development & Prog : Marc-Olivier Méhu
Technical & hardware support : Manuel Goepfert

Contact : metmap@orbifly.com




SOURCES & CREDITS :

   NOAA